createdAt,value
2017-09-22T00:00:31.698Z,0
2017-09-22T00:01:32.335Z,0
2017-09-22T00:02:31.736Z,0
2017-09-22T00:03:31.757Z,0
2017-09-22T00:04:32.104Z,0
2017-09-22T00:05:31.808Z,0
2017-09-22T00:06:31.817Z,0
2017-09-22T00:07:31.850Z,0
2017-09-22T00:08:31.855Z,0
2017-09-22T00:09:32.195Z,0
2017-09-22T00:10:31.911Z,0
2017-09-22T00:11:31.920Z,0
2017-09-22T00:12:31.950Z,0
2017-09-22T00:13:32.011Z,0
2017-09-22T00:14:32.490Z,0
2017-09-22T00:15:32.010Z,0
2017-09-22T00:16:32.020Z,0
2017-09-22T00:17:32.667Z,0
2017-09-22T00:18:32.370Z,0
2017-09-22T00:19:32.394Z,0
2017-09-22T00:20:32.113Z,0
2017-09-22T00:21:32.122Z,0
2017-09-22T00:22:32.140Z,0
2017-09-22T00:23:32.169Z,0
2017-09-22T00:24:32.184Z,0
2017-09-22T00:25:32.210Z,0
2017-09-22T00:26:32.232Z,0
2017-09-22T00:27:32.554Z,0
2017-09-22T00:28:32.574Z,0
2017-09-22T00:29:32.338Z,0
2017-09-22T00:30:32.301Z,0
2017-09-22T00:31:32.323Z,0
2017-09-22T00:32:32.667Z,0
2017-09-22T00:33:32.360Z,0
2017-09-22T00:34:32.389Z,0
2017-09-22T00:35:32.726Z,0
2017-09-22T00:36:32.426Z,0
2017-09-22T00:37:32.443Z,0
2017-09-22T00:38:32.459Z,0
2017-09-22T00:39:32.804Z,0
2017-09-22T00:40:32.816Z,0
2017-09-22T00:41:32.528Z,0
2017-09-22T00:42:32.565Z,0
2017-09-22T00:43:32.880Z,0
2017-09-22T00:44:32.593Z,0
2017-09-22T00:45:32.606Z,0
2017-09-22T00:46:32.939Z,0
2017-09-22T00:47:32.964Z,0
2017-09-22T00:48:32.719Z,0
2017-09-22T00:49:32.692Z,0
2017-09-22T00:50:33.008Z,0
2017-09-22T00:51:33.038Z,0
2017-09-22T00:52:32.743Z,0
2017-09-22T00:53:33.073Z,0
2017-09-22T00:54:33.092Z,0
2017-09-22T00:55:32.810Z,0
2017-09-22T00:56:32.820Z,0
2017-09-22T00:57:32.850Z,0
2017-09-22T00:58:32.880Z,0
2017-09-22T00:59:32.884Z,0
2017-09-22T01:00:32.906Z,0
2017-09-22T01:01:32.929Z,0
2017-09-22T01:02:32.949Z,0
2017-09-22T01:03:32.980Z,0
2017-09-22T01:04:33.130Z,0
2017-09-22T01:05:33.005Z,0
2017-09-22T01:06:33.023Z,0
2017-09-22T01:07:33.376Z,0
2017-09-22T01:08:33.062Z,0
2017-09-22T01:09:33.087Z,0
2017-09-22T01:10:33.099Z,0
2017-09-22T01:11:33.119Z,0
2017-09-22T01:12:33.140Z,0
2017-09-22T01:13:33.159Z,0
2017-09-22T01:14:33.491Z,0
2017-09-22T01:15:33.196Z,0
2017-09-22T01:16:33.533Z,0
2017-09-22T01:17:33.556Z,0
2017-09-22T01:18:33.263Z,0
2017-09-22T01:19:33.302Z,0
2017-09-22T01:20:33.623Z,0
2017-09-22T01:21:33.322Z,0
2017-09-22T01:22:33.345Z,0
2017-09-22T01:23:33.361Z,0
2017-09-22T01:24:33.388Z,0
2017-09-22T01:25:33.398Z,0
2017-09-22T01:26:33.414Z,0
2017-09-22T01:27:33.438Z,0
2017-09-22T01:28:33.467Z,0
2017-09-22T01:29:33.477Z,0
2017-09-22T01:30:34.129Z,0
2017-09-22T01:31:33.515Z,0
2017-09-22T01:32:33.547Z,0
2017-09-22T01:33:33.564Z,0
2017-09-22T01:34:33.589Z,0
2017-09-22T01:35:33.603Z,0
2017-09-22T01:36:33.625Z,0
2017-09-22T01:37:33.962Z,0
2017-09-22T01:38:34.003Z,0
2017-09-22T01:39:33.730Z,0
2017-09-22T01:40:34.023Z,0
2017-09-22T01:41:34.027Z,0
2017-09-22T01:42:34.045Z,0
2017-09-22T01:43:34.098Z,0
2017-09-22T01:44:33.778Z,0
2017-09-22T01:45:33.803Z,0
2017-09-22T01:46:33.879Z,0
2017-09-22T01:47:33.829Z,0
2017-09-22T01:48:33.856Z,0
2017-09-22T01:49:33.878Z,0
2017-09-22T01:50:33.891Z,0
2017-09-22T01:51:33.917Z,0
2017-09-22T01:52:33.930Z,0
2017-09-22T01:53:33.952Z,0
2017-09-22T01:54:34.282Z,0
2017-09-22T01:55:34.014Z,0
2017-09-22T01:56:34.016Z,0
2017-09-22T01:57:34.091Z,0
2017-09-22T01:58:34.360Z,0
2017-09-22T01:59:34.075Z,0
2017-09-22T02:00:34.086Z,0
2017-09-22T02:01:34.107Z,0
2017-09-22T02:02:34.132Z,0
2017-09-22T02:03:34.154Z,0
2017-09-22T02:04:34.487Z,0
2017-09-22T02:05:34.205Z,0
2017-09-22T02:06:34.213Z,0
2017-09-22T02:07:34.221Z,0
2017-09-22T02:08:34.250Z,0
2017-09-22T02:09:34.271Z,0
2017-09-22T02:10:34.302Z,0
2017-09-22T02:11:34.616Z,0
2017-09-22T02:12:34.326Z,0
2017-09-22T02:13:34.346Z,0
2017-09-22T02:14:34.364Z,0
2017-09-22T02:15:34.390Z,0
2017-09-22T02:16:34.465Z,0
2017-09-22T02:17:35.054Z,0
2017-09-22T02:18:34.449Z,0
2017-09-22T02:19:34.779Z,0
2017-09-22T02:20:34.491Z,0
2017-09-22T02:21:34.507Z,0
2017-09-22T02:22:34.841Z,0
2017-09-22T02:23:34.544Z,0
2017-09-22T02:24:34.568Z,0
2017-09-22T02:25:34.580Z,0
2017-09-22T02:26:34.621Z,0
2017-09-22T02:27:34.933Z,0
2017-09-22T02:28:34.640Z,0
2017-09-22T02:29:34.670Z,0
2017-09-22T02:30:34.684Z,0
2017-09-22T02:31:34.753Z,0
2017-09-22T02:32:34.725Z,0
2017-09-22T02:33:34.740Z,0
2017-09-22T02:34:34.765Z,0
2017-09-22T02:35:34.777Z,0
2017-09-22T02:36:34.804Z,0
2017-09-22T02:37:35.131Z,0
2017-09-22T02:38:34.834Z,0
2017-09-22T02:39:34.855Z,0
2017-09-22T02:40:34.882Z,0
2017-09-22T02:41:34.905Z,0
2017-09-22T02:42:34.925Z,0
2017-09-22T02:43:34.934Z,0
2017-09-22T02:44:34.957Z,0
2017-09-22T02:45:34.966Z,0
2017-09-22T02:46:35.048Z,0
2017-09-22T02:47:35.318Z,0
2017-09-22T02:48:35.035Z,0
2017-09-22T02:49:35.357Z,0
2017-09-22T02:50:35.080Z,0
2017-09-22T02:51:35.405Z,0
2017-09-22T02:52:35.112Z,0
2017-09-22T02:53:35.129Z,0
2017-09-22T02:54:35.140Z,0
2017-09-22T02:55:35.169Z,0
2017-09-22T02:56:35.187Z,0
2017-09-22T02:57:35.209Z,0
2017-09-22T02:58:35.227Z,0
2017-09-22T02:59:35.261Z,0
2017-09-22T03:00:35.262Z,0
2017-09-22T03:01:35.332Z,0
2017-09-22T03:02:35.292Z,0
2017-09-22T03:03:35.321Z,0
2017-09-22T03:04:35.336Z,0
2017-09-22T03:05:35.358Z,0
2017-09-22T03:06:35.686Z,0
2017-09-22T03:07:35.401Z,0
2017-09-22T03:08:35.411Z,0
2017-09-22T03:09:35.438Z,0
2017-09-22T03:10:35.444Z,0
2017-09-22T03:11:35.492Z,0
2017-09-22T03:12:35.490Z,0
2017-09-22T03:13:35.513Z,0
2017-09-22T03:14:35.846Z,0
2017-09-22T03:15:35.547Z,0
2017-09-22T03:16:35.576Z,0
2017-09-22T03:17:35.947Z,0
2017-09-22T03:18:35.608Z,0
2017-09-22T03:19:35.623Z,0
2017-09-22T03:20:35.645Z,0
2017-09-22T03:21:35.680Z,0
2017-09-22T03:22:35.687Z,0
2017-09-22T03:23:35.699Z,0
2017-09-22T03:24:35.719Z,0
2017-09-22T03:25:35.739Z,0
2017-09-22T03:26:35.761Z,0
2017-09-22T03:27:35.799Z,0
2017-09-22T03:28:35.800Z,0
2017-09-22T03:29:35.821Z,0
2017-09-22T03:30:35.839Z,0
2017-09-22T03:31:35.857Z,0
2017-09-22T03:32:35.932Z,0
2017-09-22T03:33:36.269Z,0
2017-09-22T03:34:35.909Z,0
2017-09-22T03:35:35.936Z,0
2017-09-22T03:36:35.965Z,0
2017-09-22T03:37:35.967Z,0
2017-09-22T03:38:36.294Z,0
2017-09-22T03:39:36.570Z,0
2017-09-22T03:40:36.030Z,0
2017-09-22T03:41:36.354Z,0
2017-09-22T03:42:36.373Z,0
2017-09-22T03:43:36.077Z,0
2017-09-22T03:44:36.107Z,0
2017-09-22T03:45:36.123Z,0
2017-09-22T03:46:36.148Z,0
2017-09-22T03:47:36.160Z,0
2017-09-22T03:48:36.188Z,0
2017-09-22T03:49:36.189Z,0
2017-09-22T03:50:36.259Z,0
2017-09-22T03:51:36.539Z,0
2017-09-22T03:52:36.248Z,0
2017-09-22T03:53:36.264Z,0
2017-09-22T03:54:36.289Z,0
2017-09-22T03:55:36.308Z,0
2017-09-22T03:56:36.328Z,0
2017-09-22T03:57:36.659Z,0
2017-09-22T03:58:36.673Z,0
2017-09-22T03:59:36.401Z,0
2017-09-22T04:00:36.731Z,0
2017-09-22T04:01:36.414Z,0
2017-09-22T04:02:36.474Z,0
2017-09-22T04:03:36.467Z,0
2017-09-22T04:04:36.484Z,0
2017-09-22T04:05:36.511Z,0
2017-09-22T04:06:36.822Z,0
2017-09-22T04:07:36.536Z,0
2017-09-22T04:08:36.605Z,0
2017-09-22T04:09:36.569Z,0
2017-09-22T04:10:36.590Z,0
2017-09-22T04:11:36.606Z,0
2017-09-22T04:12:36.627Z,0
2017-09-22T04:13:36.659Z,0
2017-09-22T04:14:36.665Z,0
2017-09-22T04:15:36.685Z,0
2017-09-22T04:16:36.712Z,0
2017-09-22T04:17:37.037Z,0
2017-09-22T04:18:36.743Z,0
2017-09-22T04:19:36.764Z,0
2017-09-22T04:20:36.781Z,0
2017-09-22T04:21:37.109Z,0
2017-09-22T04:22:36.820Z,0
2017-09-22T04:23:36.841Z,0
2017-09-22T04:24:37.959Z,0
2017-09-22T04:25:36.874Z,0
2017-09-22T04:26:36.897Z,0
2017-09-22T04:27:37.230Z,0
2017-09-22T04:28:37.010Z,0
2017-09-22T04:29:36.947Z,0
2017-09-22T04:30:36.974Z,0
2017-09-22T04:31:36.989Z,0
2017-09-22T04:32:37.010Z,0
2017-09-22T04:33:37.031Z,0
2017-09-22T04:34:37.040Z,0
2017-09-22T04:35:37.065Z,0
2017-09-22T04:36:37.404Z,0
2017-09-22T04:37:37.098Z,0
2017-09-22T04:38:37.132Z,0
2017-09-22T04:39:37.182Z,0
2017-09-22T04:40:37.463Z,0
2017-09-22T04:41:37.178Z,0
2017-09-22T04:42:37.549Z,0
2017-09-22T04:43:37.553Z,0
2017-09-22T04:44:37.544Z,0
2017-09-22T04:45:37.258Z,0
2017-09-22T04:46:37.581Z,0
2017-09-22T04:47:37.292Z,0
2017-09-22T04:48:37.625Z,0
2017-09-22T04:49:37.327Z,0
2017-09-22T04:50:37.358Z,0
2017-09-22T04:51:37.357Z,0
2017-09-22T04:52:37.391Z,0
2017-09-22T04:53:37.405Z,0
2017-09-22T04:54:37.425Z,0
2017-09-22T04:55:37.441Z,0
2017-09-22T04:56:37.471Z,0
2017-09-22T04:57:37.859Z,5
2017-09-22T04:58:37.816Z,5
2017-09-22T04:59:37.525Z,5
2017-09-22T05:00:37.547Z,5
2017-09-22T05:01:37.875Z,5
2017-09-22T05:02:37.579Z,5
2017-09-22T05:03:37.604Z,10
2017-09-22T05:04:37.617Z,10
2017-09-22T05:05:37.644Z,10
2017-09-22T05:06:37.675Z,10
2017-09-22T05:07:37.673Z,10
2017-09-22T05:08:37.682Z,15
2017-09-22T05:09:37.714Z,15
2017-09-22T05:10:38.043Z,15
2017-09-22T05:11:37.748Z,15
2017-09-22T05:12:37.764Z,15
2017-09-22T05:13:38.109Z,20
2017-09-22T05:14:37.852Z,20
2017-09-22T05:15:37.823Z,20
2017-09-22T05:16:37.841Z,20
2017-09-22T05:17:38.169Z,25
2017-09-22T05:18:37.873Z,25
2017-09-22T05:19:37.903Z,25
2017-09-22T05:20:37.924Z,30
2017-09-22T05:21:37.956Z,30
2017-09-22T05:22:38.281Z,30
2017-09-22T05:23:37.972Z,30
2017-09-22T05:24:37.993Z,35
2017-09-22T05:25:38.327Z,35
2017-09-22T05:26:38.036Z,35
2017-09-22T05:27:38.046Z,35
2017-09-22T05:28:38.371Z,40
2017-09-22T05:29:38.087Z,40
2017-09-22T05:30:38.151Z,40
2017-09-22T05:31:38.432Z,40
2017-09-22T05:32:38.462Z,45
2017-09-22T05:33:38.166Z,45
2017-09-22T05:34:38.184Z,45
2017-09-22T05:35:38.200Z,50
2017-09-22T05:36:38.240Z,50
2017-09-22T05:37:38.233Z,50
2017-09-22T05:38:38.251Z,50
2017-09-22T05:39:38.286Z,55
2017-09-22T05:40:38.610Z,55
2017-09-22T05:41:38.318Z,55
2017-09-22T05:42:38.331Z,60
2017-09-22T05:43:38.354Z,60
2017-09-22T05:44:38.389Z,60
2017-09-22T05:45:38.391Z,65
2017-09-22T05:46:39.115Z,65
2017-09-22T05:47:38.482Z,65
2017-09-22T05:48:38.465Z,65
2017-09-22T05:49:38.467Z,70
2017-09-22T05:50:38.491Z,70
2017-09-22T05:51:38.525Z,70
2017-09-22T05:52:38.529Z,75
2017-09-22T05:53:38.545Z,75
2017-09-22T05:54:38.563Z,75
2017-09-22T05:55:38.596Z,80
2017-09-22T05:56:38.912Z,80
2017-09-22T05:57:38.656Z,80
2017-09-22T05:58:38.643Z,80
2017-09-22T05:59:38.976Z,85
2017-09-22T06:00:38.679Z,85
2017-09-22T06:01:38.701Z,80
2017-09-22T06:02:39.032Z,85
2017-09-22T06:03:38.748Z,90
2017-09-22T06:04:38.821Z,85
2017-09-22T06:05:39.085Z,85
2017-09-22T06:06:38.810Z,90
2017-09-22T06:07:38.819Z,90
2017-09-22T06:08:38.842Z,80
2017-09-22T06:09:39.476Z,75
2017-09-22T06:10:39.190Z,75
2017-09-22T06:11:38.895Z,75
2017-09-22T06:12:38.928Z,75
2017-09-22T06:13:38.941Z,80
2017-09-22T06:14:38.955Z,80
2017-09-22T06:15:39.283Z,90
2017-09-22T06:16:38.996Z,100
2017-09-22T06:17:39.019Z,100
2017-09-22T06:18:39.022Z,105
2017-09-22T06:19:39.530Z,105
2017-09-22T06:20:39.070Z,110
2017-09-22T06:21:39.094Z,110
2017-09-22T06:22:39.416Z,110
2017-09-22T06:23:39.133Z,115
2017-09-22T06:24:39.143Z,115
2017-09-22T06:25:39.166Z,115
2017-09-22T06:26:39.185Z,115
2017-09-22T06:27:39.217Z,115
2017-09-22T06:28:39.544Z,110
2017-09-22T06:29:39.556Z,115
2017-09-22T06:30:39.298Z,125
2017-09-22T06:31:39.588Z,125
2017-09-22T06:32:39.615Z,120
2017-09-22T06:33:39.321Z,125
2017-09-22T06:34:39.341Z,125
2017-09-22T06:35:39.364Z,125
2017-09-22T06:36:39.427Z,130
2017-09-22T06:37:39.401Z,135
2017-09-22T06:38:39.431Z,135
2017-09-22T06:39:39.445Z,130
2017-09-22T06:40:39.466Z,130
2017-09-22T06:41:39.480Z,130
2017-09-22T06:42:39.810Z,135
2017-09-22T06:43:39.830Z,140
2017-09-22T06:44:39.534Z,140
2017-09-22T06:45:39.881Z,140
2017-09-22T06:46:39.583Z,145
2017-09-22T06:47:39.606Z,145
2017-09-22T06:48:39.653Z,145
2017-09-22T06:49:39.642Z,150
2017-09-22T06:50:39.663Z,150
2017-09-22T06:51:39.736Z,150
2017-09-22T06:52:40.026Z,155
2017-09-22T06:53:39.721Z,155
2017-09-22T06:54:39.738Z,155
2017-09-22T06:55:39.770Z,160
2017-09-22T06:56:39.788Z,160
2017-09-22T06:57:39.809Z,160
2017-09-22T06:58:39.838Z,165
2017-09-22T06:59:39.845Z,165
2017-09-22T07:00:39.864Z,165
2017-09-22T07:01:39.882Z,165
2017-09-22T07:02:40.216Z,170
2017-09-22T07:03:39.926Z,170
2017-09-22T07:04:39.959Z,170
2017-09-22T07:05:39.968Z,175
2017-09-22T07:06:40.053Z,175
2017-09-22T07:07:40.318Z,175
2017-09-22T07:08:40.032Z,180
2017-09-22T07:09:40.359Z,175
2017-09-22T07:10:40.073Z,180
2017-09-22T07:11:40.089Z,180
2017-09-22T07:12:40.116Z,180
2017-09-22T07:13:40.130Z,180
2017-09-22T07:14:40.167Z,180
2017-09-22T07:15:40.173Z,185
2017-09-22T07:16:40.184Z,185
2017-09-22T07:17:40.210Z,185
2017-09-22T07:18:40.231Z,185
2017-09-22T07:19:40.257Z,190
2017-09-22T07:20:40.591Z,190
2017-09-22T07:21:40.289Z,190
2017-09-22T07:22:40.317Z,190
2017-09-22T07:23:40.335Z,190
2017-09-22T07:24:40.354Z,195
2017-09-22T07:25:40.373Z,195
2017-09-22T07:26:40.390Z,195
2017-09-22T07:27:40.414Z,195
2017-09-22T07:28:40.434Z,195
2017-09-22T07:29:40.773Z,195
2017-09-22T07:30:40.474Z,195
2017-09-22T07:31:40.494Z,195
2017-09-22T07:32:40.517Z,200
2017-09-22T07:33:40.546Z,205
2017-09-22T07:34:40.555Z,205
2017-09-22T07:35:40.585Z,205
2017-09-22T07:36:40.605Z,210
2017-09-22T07:37:40.617Z,215
2017-09-22T07:38:40.742Z,220
2017-09-22T07:39:40.666Z,225
2017-09-22T07:40:40.991Z,230
2017-09-22T07:41:41.024Z,235
2017-09-22T07:42:40.737Z,240
2017-09-22T07:43:40.743Z,245
2017-09-22T07:44:41.074Z,245
2017-09-22T07:45:40.791Z,250
2017-09-22T07:46:40.819Z,260
2017-09-22T07:47:41.138Z,275
2017-09-22T07:48:40.862Z,290
2017-09-22T07:49:40.868Z,300
2017-09-22T07:50:40.898Z,315
2017-09-22T07:51:40.924Z,330
2017-09-22T07:52:41.441Z,340
2017-09-22T07:53:41.004Z,355
2017-09-22T07:54:40.994Z,350
2017-09-22T07:55:41.001Z,325
2017-09-22T07:56:41.023Z,325
2017-09-22T07:57:41.044Z,335
2017-09-22T07:58:41.070Z,325
2017-09-22T07:59:41.088Z,315
2017-09-22T08:00:41.110Z,300
2017-09-22T08:01:41.135Z,295
2017-09-22T08:02:41.165Z,305
2017-09-22T08:03:41.176Z,300
2017-09-22T08:04:41.215Z,295
2017-09-22T08:05:41.226Z,300
2017-09-22T08:06:41.245Z,305
2017-09-22T08:07:41.587Z,305
2017-09-22T08:08:41.285Z,305
2017-09-22T08:09:41.687Z,310
2017-09-22T08:10:41.341Z,305
2017-09-22T08:11:41.357Z,310
2017-09-22T08:12:41.384Z,300
2017-09-22T08:13:41.403Z,300
2017-09-22T08:14:41.431Z,300
2017-09-22T08:15:41.762Z,300
2017-09-22T08:16:41.471Z,300
2017-09-22T08:17:41.500Z,300
2017-09-22T08:18:41.853Z,300
2017-09-22T08:19:41.850Z,295
2017-09-22T08:20:41.562Z,295
2017-09-22T08:21:41.591Z,300
2017-09-22T08:22:41.631Z,300
2017-09-22T08:23:41.633Z,300
2017-09-22T08:24:41.655Z,300
2017-09-22T08:25:41.996Z,305
2017-09-22T08:26:41.698Z,315
2017-09-22T08:27:41.723Z,320
2017-09-22T08:28:41.806Z,325
2017-09-22T08:29:41.806Z,330
2017-09-22T08:30:41.790Z,335
2017-09-22T08:31:42.135Z,385
2017-09-22T08:32:42.151Z,345
2017-09-22T08:33:41.864Z,350
2017-09-22T08:34:42.516Z,350
2017-09-22T08:35:41.935Z,355
2017-09-22T08:36:41.937Z,360
2017-09-22T08:37:41.967Z,365
2017-09-22T08:38:41.984Z,370
2017-09-22T08:39:42.326Z,375
2017-09-22T08:40:42.025Z,380
2017-09-22T08:41:42.056Z,380
2017-09-22T08:42:42.074Z,390
2017-09-22T08:43:42.097Z,395
2017-09-22T08:44:42.112Z,405
2017-09-22T08:45:42.189Z,405
2017-09-22T08:46:42.178Z,415
2017-09-22T08:47:42.190Z,415
2017-09-22T08:48:42.216Z,420
2017-09-22T08:49:42.237Z,420
2017-09-22T08:50:42.269Z,430
2017-09-22T08:51:42.299Z,430
2017-09-22T08:52:42.622Z,430
2017-09-22T08:53:42.349Z,430
2017-09-22T08:54:42.670Z,430
2017-09-22T08:55:42.688Z,435
2017-09-22T08:56:42.410Z,440
2017-09-22T08:57:42.432Z,435
2017-09-22T08:58:42.459Z,425
2017-09-22T08:59:42.480Z,420
2017-09-22T09:00:42.517Z,415
2017-09-22T09:01:42.632Z,410
2017-09-22T09:02:42.555Z,410
2017-09-22T09:03:43.216Z,410
2017-09-22T09:04:42.595Z,415
2017-09-22T09:05:42.931Z,405
2017-09-22T09:06:42.974Z,425
2017-09-22T09:07:42.696Z,425
2017-09-22T09:08:42.696Z,425
2017-09-22T09:09:42.725Z,430
2017-09-22T09:10:43.381Z,545
2017-09-22T09:11:42.827Z,525
2017-09-22T09:12:42.800Z,400
2017-09-22T09:13:42.820Z,400
2017-09-22T09:14:42.853Z,400
2017-09-22T09:15:43.190Z,400
2017-09-22T09:16:42.896Z,405
2017-09-22T09:17:42.920Z,410
2017-09-22T09:18:43.262Z,420
2017-09-22T09:19:42.964Z,435
2017-09-22T09:20:43.000Z,440
2017-09-22T09:21:43.353Z,450
2017-09-22T09:22:43.045Z,460
2017-09-22T09:23:43.381Z,475
2017-09-22T09:24:43.100Z,485
2017-09-22T09:25:43.119Z,495
2017-09-22T09:26:43.151Z,500
2017-09-22T09:27:43.175Z,515
2017-09-22T09:28:43.197Z,495
2017-09-22T09:29:43.540Z,480
2017-09-22T09:30:43.310Z,475
2017-09-22T09:31:43.261Z,480
2017-09-22T09:32:43.302Z,490
2017-09-22T09:33:43.334Z,540
2017-09-22T09:34:43.351Z,475
2017-09-22T09:35:43.370Z,460
2017-09-22T09:36:43.398Z,455
2017-09-22T09:37:43.422Z,455
2017-09-22T09:38:43.448Z,455
2017-09-22T09:39:43.478Z,455
2017-09-22T09:40:43.505Z,455
2017-09-22T09:41:43.525Z,460
2017-09-22T09:42:43.547Z,465
2017-09-22T09:43:43.576Z,470
2017-09-22T09:44:43.919Z,475
2017-09-22T09:45:43.682Z,475
2017-09-22T09:46:43.964Z,455
2017-09-22T09:47:43.684Z,450
2017-09-22T09:48:43.703Z,440
2017-09-22T09:49:43.728Z,435
2017-09-22T09:50:43.756Z,430
2017-09-22T09:51:44.089Z,415
2017-09-22T09:52:43.799Z,405
2017-09-22T09:53:44.147Z,400
2017-09-22T09:54:43.877Z,395
2017-09-22T09:55:43.893Z,380
2017-09-22T09:56:43.918Z,370
2017-09-22T09:57:43.935Z,365
2017-09-22T09:58:43.972Z,360
2017-09-22T09:59:43.986Z,355
2017-09-22T10:00:44.011Z,350
2017-09-22T10:01:44.391Z,345
2017-09-22T10:02:44.069Z,340
2017-09-22T10:03:44.116Z,335
2017-09-22T10:04:44.114Z,335
2017-09-22T10:05:44.457Z,335
2017-09-22T10:06:44.482Z,335
2017-09-22T10:07:44.514Z,335
2017-09-22T10:08:44.545Z,340
2017-09-22T10:09:44.574Z,345
2017-09-22T10:10:44.264Z,355
2017-09-22T10:11:44.294Z,365
2017-09-22T10:12:44.309Z,370
2017-09-22T10:13:44.339Z,380
2017-09-22T10:14:44.362Z,385
2017-09-22T10:15:44.385Z,395
2017-09-22T10:16:44.413Z,405
2017-09-22T10:17:44.638Z,410
2017-09-22T10:18:44.460Z,410
2017-09-22T10:19:44.490Z,415
2017-09-22T10:20:44.511Z,420
2017-09-22T10:21:44.540Z,425
2017-09-22T10:22:44.876Z,440
2017-09-22T10:23:44.590Z,450
2017-09-22T10:24:44.609Z,460
2017-09-22T10:25:44.639Z,465
2017-09-22T10:26:44.673Z,480
2017-09-22T10:27:45.008Z,485
2017-09-22T10:28:44.726Z,490
2017-09-22T10:29:44.749Z,520
2017-09-22T10:30:44.765Z,485
2017-09-22T10:31:44.796Z,495
2017-09-22T10:32:44.824Z,470
2017-09-22T10:33:44.842Z,465
2017-09-22T10:34:44.952Z,465
2017-09-22T10:35:44.892Z,495
2017-09-22T10:36:44.929Z,445
2017-09-22T10:37:44.953Z,435
2017-09-22T10:38:44.991Z,430
2017-09-22T10:39:44.998Z,435
2017-09-22T10:40:45.031Z,435
2017-09-22T10:41:45.046Z,435
2017-09-22T10:42:45.084Z,440
2017-09-22T10:43:45.120Z,440
2017-09-22T10:44:45.146Z,430
2017-09-22T10:45:45.465Z,425
2017-09-22T10:46:45.183Z,420
2017-09-22T10:47:45.225Z,420
2017-09-22T10:48:45.236Z,425
2017-09-22T10:49:45.264Z,435
2017-09-22T10:50:45.334Z,440
2017-09-22T10:51:45.317Z,445
2017-09-22T10:52:45.335Z,455
2017-09-22T10:53:45.365Z,465
2017-09-22T10:54:45.594Z,480
2017-09-22T10:55:45.434Z,495
2017-09-22T10:56:45.442Z,495
2017-09-22T10:57:45.469Z,505
2017-09-22T10:58:45.500Z,515
2017-09-22T10:59:46.147Z,515
2017-09-22T11:00:45.547Z,520
2017-09-22T11:01:45.883Z,520
2017-09-22T11:02:45.605Z,515
2017-09-22T11:03:45.629Z,505
2017-09-22T11:04:45.650Z,495
2017-09-22T11:05:46.053Z,490
2017-09-22T11:06:45.701Z,505
2017-09-22T11:07:46.366Z,495
2017-09-22T11:08:45.764Z,480
2017-09-22T11:09:46.107Z,485
2017-09-22T11:10:45.813Z,500
2017-09-22T11:11:45.843Z,525
2017-09-22T11:12:45.867Z,575
2017-09-22T11:13:46.025Z,665
2017-09-22T11:14:46.240Z,825
2017-09-22T11:15:45.953Z,1125
2017-09-22T11:16:45.980Z,865
2017-09-22T11:17:45.998Z,1005
2017-09-22T11:18:46.025Z,1025
2017-09-22T11:19:46.066Z,925
2017-09-22T11:20:46.394Z,985
2017-09-22T11:21:46.107Z,875
2017-09-22T11:22:46.146Z,850
2017-09-22T11:23:46.162Z,830
2017-09-22T11:24:46.198Z,1200
2017-09-22T11:25:46.227Z,740
2017-09-22T11:26:46.251Z,530
2017-09-22T11:27:46.284Z,525
2017-09-22T11:28:46.308Z,575
2017-09-22T11:29:46.337Z,1750
2017-09-22T11:30:46.389Z,1850
2017-09-22T11:31:46.414Z,1835
2017-09-22T11:32:46.426Z,820
2017-09-22T11:33:46.452Z,835
2017-09-22T11:34:46.485Z,945
2017-09-22T11:35:46.821Z,850
2017-09-22T11:36:46.541Z,2070
2017-09-22T11:37:47.219Z,1010
2017-09-22T11:38:46.663Z,2025
2017-09-22T11:39:46.946Z,1575
2017-09-22T11:40:46.974Z,1300
2017-09-22T11:41:46.704Z,1280
2017-09-22T11:42:46.722Z,1220
2017-09-22T11:43:46.756Z,1395
2017-09-22T11:44:46.784Z,1210
2017-09-22T11:45:46.818Z,1575
2017-09-22T11:46:46.877Z,1785
2017-09-22T11:47:46.886Z,1845
2017-09-22T11:48:46.919Z,1650
2017-09-22T11:49:47.601Z,1575
2017-09-22T11:50:46.968Z,1200
2017-09-22T11:51:47.006Z,2430
2017-09-22T11:52:47.045Z,1845
2017-09-22T11:53:47.120Z,475
2017-09-22T11:54:47.097Z,405
2017-09-22T11:55:47.129Z,410
2017-09-22T11:56:47.174Z,410
2017-09-22T11:57:47.199Z,440
2017-09-22T11:58:47.236Z,500
2017-09-22T11:59:47.269Z,490
2017-09-22T12:00:47.600Z,500
2017-09-22T12:01:47.320Z,505
2017-09-22T12:02:47.360Z,475
2017-09-22T12:03:47.433Z,505
2017-09-22T12:04:48.044Z,480
2017-09-22T12:05:47.771Z,475
2017-09-22T12:06:47.478Z,450
2017-09-22T12:07:47.924Z,550
2017-09-22T12:08:47.595Z,500
2017-09-22T12:09:47.882Z,525
2017-09-22T12:10:47.922Z,510
2017-09-22T12:11:47.949Z,510
2017-09-22T12:12:47.660Z,480
2017-09-22T12:13:47.700Z,480
2017-09-22T12:14:47.723Z,475
2017-09-22T12:15:47.763Z,480
2017-09-22T12:16:47.796Z,485
2017-09-22T12:17:47.815Z,470
2017-09-22T12:18:47.849Z,465
2017-09-22T12:19:47.875Z,465
2017-09-22T12:20:47.918Z,465
2017-09-22T12:21:47.945Z,475
2017-09-22T12:22:47.975Z,480
2017-09-22T12:23:47.996Z,490
2017-09-22T12:24:48.032Z,490
2017-09-22T12:25:48.389Z,485
2017-09-22T12:26:48.462Z,490
2017-09-22T12:27:48.116Z,495
2017-09-22T12:28:48.470Z,495
2017-09-22T12:29:48.174Z,500
2017-09-22T12:30:48.202Z,500
2017-09-22T12:31:48.233Z,500
2017-09-22T12:32:48.592Z,495
2017-09-22T12:33:48.290Z,490
2017-09-22T12:34:48.343Z,485
2017-09-22T12:35:48.372Z,470
2017-09-22T12:36:48.431Z,455
2017-09-22T12:37:48.414Z,440
2017-09-22T12:38:48.434Z,435
2017-09-22T12:39:48.468Z,440
2017-09-22T12:40:48.493Z,445
2017-09-22T12:41:48.572Z,455
2017-09-22T12:42:48.860Z,470
2017-09-22T12:43:48.903Z,480
2017-09-22T12:44:48.623Z,500
2017-09-22T12:45:48.645Z,520
2017-09-22T12:46:48.678Z,545
2017-09-22T12:47:49.008Z,565
2017-09-22T12:48:48.730Z,555
2017-09-22T12:49:48.754Z,565
2017-09-22T12:50:48.788Z,555
2017-09-22T12:51:48.832Z,535
2017-09-22T12:52:48.855Z,535
2017-09-22T12:53:48.916Z,550
2017-09-22T12:54:48.912Z,550
2017-09-22T12:55:48.938Z,545
2017-09-22T12:56:49.016Z,615
2017-09-22T12:57:48.996Z,600
2017-09-22T12:58:49.018Z,550
2017-09-22T12:59:49.039Z,545
2017-09-22T13:00:49.073Z,550
2017-09-22T13:01:49.114Z,555
2017-09-22T13:02:49.138Z,555
2017-09-22T13:03:49.180Z,535
2017-09-22T13:04:49.195Z,525
2017-09-22T13:05:49.223Z,530
2017-09-22T13:06:49.273Z,535
2017-09-22T13:07:49.610Z,535
2017-09-22T13:08:49.317Z,525
2017-09-22T13:09:49.366Z,525
2017-09-22T13:10:49.381Z,510
2017-09-22T13:11:49.451Z,505
2017-09-22T13:12:49.434Z,500
2017-09-22T13:13:49.465Z,510
2017-09-22T13:14:49.497Z,530
2017-09-22T13:15:49.524Z,545
2017-09-22T13:16:49.886Z,560
2017-09-22T13:17:49.583Z,560
2017-09-22T13:18:49.617Z,580
2017-09-22T13:19:49.670Z,550
2017-09-22T13:20:49.684Z,520
2017-09-22T13:21:49.700Z,485
2017-09-22T13:22:49.736Z,455
2017-09-22T13:23:49.769Z,425
2017-09-22T13:24:49.793Z,430
2017-09-22T13:25:49.830Z,430
2017-09-22T13:26:49.855Z,425
2017-09-22T13:27:49.887Z,440
2017-09-22T13:28:49.911Z,495
2017-09-22T13:29:49.952Z,495
2017-09-22T13:30:50.026Z,535
2017-09-22T13:31:50.012Z,555
2017-09-22T13:32:50.045Z,695
2017-09-22T13:33:50.091Z,745
2017-09-22T13:34:50.099Z,850
2017-09-22T13:35:50.128Z,875
2017-09-22T13:36:50.463Z,835
2017-09-22T13:37:50.181Z,850
2017-09-22T13:38:50.212Z,860
2017-09-22T13:39:50.250Z,1035
2017-09-22T13:40:50.267Z,885
2017-09-22T13:41:50.317Z,845
2017-09-22T13:42:50.361Z,1075
2017-09-22T13:43:50.674Z,1420
2017-09-22T13:44:50.394Z,1190
2017-09-22T13:45:50.429Z,2245
2017-09-22T13:46:50.606Z,2015
2017-09-22T13:47:50.489Z,1210
2017-09-22T13:48:50.826Z,965
2017-09-22T13:49:50.544Z,720
2017-09-22T13:50:50.586Z,710
2017-09-22T13:51:50.975Z,780
2017-09-22T13:52:51.260Z,955
2017-09-22T13:53:50.983Z,555
2017-09-22T13:54:50.715Z,400
2017-09-22T13:55:50.731Z,345
2017-09-22T13:56:50.767Z,315
2017-09-22T13:57:50.798Z,305
2017-09-22T13:58:50.827Z,325
2017-09-22T13:59:50.859Z,350
2017-09-22T14:00:50.889Z,390
2017-09-22T14:01:50.973Z,400
2017-09-22T14:02:50.951Z,430
2017-09-22T14:03:50.985Z,520
2017-09-22T14:04:51.013Z,710
2017-09-22T14:05:51.038Z,445
2017-09-22T14:06:51.074Z,430
2017-09-22T14:07:51.421Z,570
2017-09-22T14:08:51.443Z,750